Grants Pass, Oregon
Current Conditions -  °F | °C
As of 8:22 AM on Friday 21 Nov 2014 (Local Time) from KSXT Reporting Station
Light Rain Light Rain  
Wind Chill: 29°   Ceiling: 400
Heat Index: 38°   Visibility: 0.25mi
Dew Point: 38°   Wind: 16mph
Humidity: 100%   Direction: 180°S
Pressure: 29.9"   Gusts: 25mph
Location:  42.44°N, 123.32°W
Report Text: KSXT 211622Z AUTO 18014G22KT 1/4SM -RA FG OVC004 03/03 A2990 RMK AO2 P0002 T00330033
Loading
Personal Weather Stations






























Interactive Weather Map New forecast layout! Learn more

10-Day Weather Forecast

Advertisements
Track Severe Weather on mobile